Guadalupe, Texas
Current Conditions -  °F | °C
As of 9:51 AM on Wednesday 22 Oct 2014 (Local Time) from KVCT Reporting Station
Clear Clear  
Wind Chill: 76°   Ceiling: Unl
Heat Index: 76°   Visibility: 10mi
Dew Point: 63°   Wind: 12mph
Humidity: 64%   Direction: 60°ENE
Pressure: 30.09"   Gusts: NA
Location:  28.7094°N, 97.0351°W
Report Text: KVCT 221451Z 06010KT 10SM CLR 24/17 A3009 RMK AO2 SLP188 T02440172 52020
Loading
Personal Weather Stations






























Interactive Weather Map
Tropical Storm Tracking
New forecast layout! Learn more

10-Day Weather Forecast

Advertisements
Track Severe Weather on mobile